Terminal Aerodrome Forecast
Issued by NWS

Home | Current Version | Previous Version | Text Only | Print | Product List | Glossary On
Versions: 1 2 3 4 5 6 7 8 9 10 11 12 13 14 15 16
000
FTUS46 KLOX 011700
TAFLGB
TAF
KLGB 011723Z 0118/0218 VRB03KT P6SM SKC
     FM012200 30008KT P6SM SCT200
     FM020400 VRB03KT P6SM SCT200
     FM021200 VRB03KT 5SM BR BKN008
     FM021700 19006KT P6SM FEW010=

USA.gov is the U.S. government's official web portal to all federal, state and local government web resources and services.